createdAt,value
2023-03-29T00:00:37.304Z,25.00
2023-03-29T00:03:06.740Z,25.00
2023-03-29T00:05:36.007Z,24.51
2023-03-29T00:08:04.485Z,24.31
2023-03-29T00:10:34.510Z,24.27
2023-03-29T00:13:03.100Z,24.79
2023-03-29T00:15:31.366Z,25.05
2023-03-29T00:17:59.351Z,25.00
2023-03-29T00:20:29.358Z,24.80
2023-03-29T00:22:57.115Z,24.30
2023-03-29T00:25:25.070Z,24.69
2023-03-29T00:27:52.810Z,24.46
2023-03-29T00:30:20.544Z,24.74
2023-03-29T00:32:48.421Z,24.76
2023-03-29T00:35:16.551Z,24.93
2023-03-29T00:37:47.225Z,24.91
2023-03-29T00:40:15.810Z,25.01
2023-03-29T00:42:46.171Z,25.02
2023-03-29T00:45:22.553Z,24.82
2023-03-29T00:47:52.887Z,24.93
2023-03-29T00:50:25.892Z,25.03
2023-03-29T00:53:00.873Z,25.07
2023-03-29T00:55:32.441Z,25.02
2023-03-29T00:58:02.681Z,24.94
2023-03-29T01:00:34.151Z,24.88
2023-03-29T01:03:06.992Z,24.78
2023-03-29T01:05:40.486Z,24.94
2023-03-29T01:08:12.318Z,24.87
2023-03-29T01:10:44.100Z,24.58
2023-03-29T01:13:18.187Z,24.77
2023-03-29T01:15:48.000Z,24.79
2023-03-29T01:18:15.840Z,24.79
2023-03-29T01:21:03.382Z,24.59
2023-03-29T01:23:59.280Z,24.88
2023-03-29T01:26:34.474Z,24.59
2023-03-29T01:29:08.689Z,24.59
2023-03-29T01:31:40.016Z,24.94
2023-03-29T01:34:14.091Z,24.56
2023-03-29T01:36:49.547Z,24.84
2023-03-29T01:39:18.979Z,24.99
2023-03-29T01:41:59.866Z,25.10
2023-03-29T01:44:36.318Z,24.85
2023-03-29T01:47:12.225Z,24.81
2023-03-29T01:49:45.286Z,24.98
2023-03-29T01:52:18.611Z,25.13
2023-03-29T01:54:53.911Z,24.89
2023-03-29T01:57:22.514Z,25.08
2023-03-29T01:59:55.498Z,24.73
2023-03-29T02:02:27.656Z,24.93
2023-03-29T02:04:57.689Z,24.58
2023-03-29T02:07:30.689Z,25.05
2023-03-29T02:09:59.889Z,24.73
2023-03-29T02:12:27.620Z,25.10
2023-03-29T02:14:58.714Z,24.93
2023-03-29T02:17:27.799Z,24.56
2023-03-29T02:20:01.984Z,24.79
2023-03-29T02:22:39.841Z,24.84
2023-03-29T02:25:09.619Z,24.99
2023-03-29T02:27:38.745Z,24.95
2023-03-29T02:30:10.777Z,24.71
2023-03-29T02:32:48.876Z,24.76
2023-03-29T02:35:20.641Z,24.93
2023-03-29T02:37:54.456Z,24.69
2023-03-29T02:40:26.105Z,25.05
2023-03-29T02:42:56.765Z,25.13
2023-03-29T02:45:27.821Z,25.12
2023-03-29T02:47:58.128Z,25.01
2023-03-29T02:50:29.691Z,25.13
2023-03-29T02:53:02.579Z,25.13
2023-03-29T02:55:34.916Z,25.15
2023-03-29T02:58:07.899Z,25.22
2023-03-29T03:00:40.808Z,25.05
2023-03-29T03:03:09.711Z,25.04
2023-03-29T03:05:38.214Z,25.21
2023-03-29T03:08:07.442Z,25.15
2023-03-29T03:10:36.232Z,25.10
2023-03-29T03:13:04.378Z,25.00
2023-03-29T03:15:35.517Z,24.98
2023-03-29T03:18:05.467Z,24.95
2023-03-29T03:20:33.469Z,25.12
2023-03-29T03:23:03.373Z,25.27
2023-03-29T03:25:31.675Z,25.36
2023-03-29T03:27:59.529Z,25.25
2023-03-29T03:30:27.241Z,25.34
2023-03-29T03:32:55.663Z,25.30
2023-03-29T03:35:25.036Z,25.31
2023-03-29T03:37:52.842Z,25.36
2023-03-29T03:40:20.827Z,25.14
2023-03-29T03:42:48.654Z,25.18
2023-03-29T03:45:16.625Z,25.45
2023-03-29T03:47:44.363Z,25.22
2023-03-29T03:50:13.779Z,24.56
2023-03-29T03:52:42.896Z,24.77
2023-03-29T03:55:11.919Z,25.03
2023-03-29T03:57:39.782Z,24.98
2023-03-29T04:00:19.155Z,25.09
2023-03-29T04:02:48.219Z,24.37
2023-03-29T04:05:17.075Z,24.53
2023-03-29T04:07:46.206Z,24.35
2023-03-29T04:10:14.034Z,24.78
2023-03-29T04:12:41.852Z,24.67
2023-03-29T04:15:10.501Z,25.00
2023-03-29T04:17:38.882Z,25.11
2023-03-29T04:20:11.597Z,25.27
2023-03-29T04:22:39.530Z,24.89
2023-03-29T04:25:10.421Z,24.31
2023-03-29T04:27:38.308Z,24.81
2023-03-29T04:30:08.117Z,25.01
2023-03-29T04:32:36.230Z,24.34
2023-03-29T04:35:04.752Z,24.57
2023-03-29T04:37:32.605Z,24.58
2023-03-29T04:40:01.349Z,24.52
2023-03-29T04:42:30.493Z,24.76
2023-03-29T04:44:58.507Z,24.92
2023-03-29T04:47:29.948Z,24.50
2023-03-29T04:49:58.063Z,24.34
2023-03-29T04:52:26.361Z,24.74
2023-03-29T04:54:54.268Z,24.76
2023-03-29T04:57:22.128Z,24.99
2023-03-29T04:59:51.382Z,24.88
2023-03-29T05:02:19.165Z,25.07
2023-03-29T05:04:46.932Z,24.96
2023-03-29T05:07:15.568Z,24.83
2023-03-29T05:09:43.707Z,24.68
2023-03-29T05:12:11.571Z,24.72
2023-03-29T05:14:39.268Z,24.25
2023-03-29T05:17:08.351Z,23.83
2023-03-29T05:19:36.504Z,23.64
2023-03-29T05:22:04.181Z,23.58
2023-03-29T05:24:31.903Z,23.56
2023-03-29T05:26:59.876Z,23.33
2023-03-29T05:29:27.699Z,23.53
2023-03-29T05:31:55.495Z,22.82
2023-03-29T05:34:25.041Z,23.14
2023-03-29T05:36:52.786Z,23.03
2023-03-29T05:39:21.102Z,22.99
2023-03-29T05:41:48.872Z,23.02
2023-03-29T05:44:16.927Z,23.11
2023-03-29T05:46:44.704Z,22.86
2023-03-29T05:49:12.446Z,23.39
2023-03-29T05:51:41.976Z,22.76
2023-03-29T05:54:09.733Z,22.58
2023-03-29T05:56:37.523Z,22.90
2023-03-29T05:59:05.533Z,23.20
2023-03-29T06:01:33.342Z,22.62
2023-03-29T06:04:01.759Z,23.01
2023-03-29T06:06:29.676Z,23.11
2023-03-29T06:08:59.080Z,23.05
2023-03-29T06:11:27.795Z,23.09
2023-03-29T06:13:55.905Z,22.54
2023-03-29T06:16:23.658Z,22.64
2023-03-29T06:18:51.421Z,22.26
2023-03-29T06:21:19.180Z,22.01
2023-03-29T06:23:47.380Z,21.87
2023-03-29T06:26:17.754Z,21.95
2023-03-29T06:28:45.482Z,21.96
2023-03-29T06:31:13.227Z,22.44
2023-03-29T06:33:43.149Z,22.39
2023-03-29T06:36:11.909Z,22.48
2023-03-29T06:38:39.823Z,22.19
2023-03-29T06:41:09.054Z,22.27
2023-03-29T06:43:38.338Z,22.08
2023-03-29T06:46:11.620Z,22.60
2023-03-29T06:48:39.488Z,22.73
2023-03-29T06:51:08.403Z,22.99
2023-03-29T06:53:36.715Z,23.35
2023-03-29T06:56:09.363Z,23.47
2023-03-29T06:58:39.157Z,23.33
2023-03-29T07:01:07.640Z,22.96
2023-03-29T07:03:36.318Z,22.74
2023-03-29T07:06:09.890Z,23.28
2023-03-29T07:08:43.345Z,23.03
2023-03-29T07:11:13.199Z,22.55
2023-03-29T07:13:43.362Z,22.91
2023-03-29T07:16:12.836Z,23.74
2023-03-29T07:18:41.568Z,23.53
2023-03-29T07:23:38.358Z,23.62
2023-03-29T07:26:07.534Z,23.28
2023-03-29T07:28:37.350Z,23.98
2023-03-29T07:31:10.743Z,23.89
2023-03-29T07:33:38.690Z,23.64
2023-03-29T07:36:07.375Z,23.98
2023-03-29T07:38:36.735Z,23.71
2023-03-29T07:41:05.741Z,23.74
2023-03-29T07:43:34.217Z,23.46
2023-03-29T07:46:02.548Z,23.46
2023-03-29T07:48:32.411Z,24.06
2023-03-29T07:51:00.330Z,23.18
2023-03-29T07:53:29.558Z,23.86
2023-03-29T07:55:57.374Z,23.53
2023-03-29T07:58:25.240Z,23.74
2023-03-29T08:00:53.177Z,23.22
2023-03-29T08:03:21.155Z,23.93
2023-03-29T08:05:50.276Z,24.27
2023-03-29T08:08:18.398Z,24.39
2023-03-29T08:10:46.322Z,23.85
2023-03-29T08:13:14.124Z,24.17
2023-03-29T08:15:46.158Z,24.90
2023-03-29T08:18:14.206Z,24.79
2023-03-29T08:20:42.527Z,24.61
2023-03-29T08:23:11.834Z,24.69
2023-03-29T08:25:39.566Z,24.94
2023-03-29T08:28:07.250Z,24.99
2023-03-29T08:30:34.964Z,23.97
2023-03-29T08:33:02.871Z,24.61
2023-03-29T08:35:31.039Z,24.36
2023-03-29T08:37:58.742Z,24.75
2023-03-29T08:40:29.993Z,24.98
2023-03-29T08:43:13.263Z,25.10
2023-03-29T08:45:51.108Z,24.56
2023-03-29T08:48:28.486Z,24.94
2023-03-29T08:51:01.401Z,24.80
2023-03-29T08:53:35.559Z,25.59
2023-03-29T08:56:09.729Z,25.46
2023-03-29T08:58:39.159Z,25.92
2023-03-29T09:01:08.698Z,25.38
2023-03-29T09:03:41.923Z,25.78
2023-03-29T09:06:10.770Z,25.56
2023-03-29T09:08:40.560Z,26.05
2023-03-29T09:11:27.533Z,26.02
2023-03-29T09:14:08.640Z,25.94
2023-03-29T09:16:43.207Z,25.76
2023-03-29T09:19:21.445Z,25.80
2023-03-29T09:21:59.159Z,26.14
2023-03-29T09:24:42.724Z,26.40
2023-03-29T09:27:20.138Z,26.58
2023-03-29T09:29:55.154Z,26.62
2023-03-29T09:32:29.765Z,26.41
2023-03-29T09:35:09.058Z,26.04
2023-03-29T09:37:39.402Z,25.77
2023-03-29T09:40:13.282Z,25.67
2023-03-29T09:42:42.670Z,25.62
2023-03-29T09:45:10.913Z,26.59
2023-03-29T09:47:42.980Z,26.58
2023-03-29T09:50:29.556Z,27.37
2023-03-29T09:52:57.851Z,27.38
2023-03-29T09:55:29.422Z,27.12
2023-03-29T09:58:01.312Z,27.10
2023-03-29T10:00:30.110Z,27.36
2023-03-29T10:03:00.134Z,26.43
2023-03-29T10:05:31.983Z,26.47
2023-03-29T10:08:02.312Z,26.76
2023-03-29T10:10:32.344Z,26.42
2023-03-29T10:13:05.382Z,27.00
2023-03-29T10:15:34.088Z,27.33
2023-03-29T10:18:04.195Z,27.11
2023-03-29T10:20:32.136Z,27.34
2023-03-29T10:23:00.807Z,27.56
2023-03-29T10:25:31.240Z,27.87
2023-03-29T10:28:08.201Z,27.61
2023-03-29T10:30:40.107Z,27.54
2023-03-29T10:33:16.515Z,27.06
2023-03-29T10:35:44.888Z,26.52
2023-03-29T10:38:14.966Z,27.10
2023-03-29T10:40:45.578Z,26.92
2023-03-29T10:43:21.791Z,27.32
2023-03-29T10:45:51.202Z,27.50
2023-03-29T10:48:19.378Z,27.70
2023-03-29T10:50:53.068Z,27.73
2023-03-29T10:53:25.634Z,27.96
2023-03-29T10:56:04.237Z,27.61
2023-03-29T10:58:46.116Z,27.94
2023-03-29T11:01:18.699Z,28.35
2023-03-29T11:04:03.979Z,28.68
2023-03-29T11:06:37.781Z,28.83
2023-03-29T11:09:14.118Z,28.74
2023-03-29T11:12:04.455Z,29.26
2023-03-29T11:14:53.780Z,29.92
2023-03-29T11:17:34.418Z,29.79
2023-03-29T11:20:12.541Z,29.74
2023-03-29T11:22:50.521Z,29.73
2023-03-29T11:25:29.702Z,29.45
2023-03-29T11:28:07.514Z,28.91
2023-03-29T11:30:43.459Z,28.45
2023-03-29T11:33:22.488Z,28.76
2023-03-29T11:35:57.182Z,28.63
2023-03-29T11:38:32.919Z,29.40
2023-03-29T11:41:09.459Z,29.51
2023-03-29T11:43:42.801Z,29.60
2023-03-29T11:46:17.659Z,29.57
2023-03-29T11:48:51.866Z,30.10
2023-03-29T11:51:23.683Z,29.24
2023-03-29T11:54:00.636Z,29.94
2023-03-29T11:56:35.666Z,28.23
2023-03-29T11:59:09.123Z,30.06
2023-03-29T12:01:43.254Z,30.09
2023-03-29T12:04:17.629Z,30.39
2023-03-29T12:06:52.404Z,29.85
2023-03-29T12:09:28.744Z,30.63
2023-03-29T12:12:03.546Z,30.26
2023-03-29T12:14:44.526Z,30.64
2023-03-29T12:17:20.099Z,29.63
2023-03-29T12:19:54.443Z,28.27
2023-03-29T12:22:23.380Z,29.93
2023-03-29T12:24:54.924Z,29.35
2023-03-29T12:27:27.111Z,28.64
2023-03-29T12:30:31.145Z,29.28
2023-03-29T12:33:18.907Z,30.24
2023-03-29T12:35:56.557Z,29.03
2023-03-29T12:38:28.670Z,31.01
2023-03-29T12:41:00.916Z,30.30
2023-03-29T12:43:32.731Z,29.75
2023-03-29T12:46:08.321Z,28.67
2023-03-29T12:48:41.577Z,30.28
2023-03-29T12:51:14.782Z,30.23
2023-03-29T12:53:45.598Z,29.71
2023-03-29T12:56:16.051Z,29.16
2023-03-29T12:58:53.110Z,29.82
2023-03-29T13:01:28.257Z,29.65
2023-03-29T13:04:16.913Z,30.24
2023-03-29T13:07:03.844Z,30.17
2023-03-29T13:09:35.846Z,31.10
2023-03-29T13:12:14.544Z,31.24
2023-03-29T13:14:44.911Z,31.33
2023-03-29T13:17:23.728Z,30.34
2023-03-29T13:20:04.227Z,31.58
2023-03-29T13:22:41.682Z,31.43
2023-03-29T13:25:21.537Z,31.10
2023-03-29T13:27:56.436Z,30.66
2023-03-29T13:30:45.678Z,29.93
2023-03-29T13:33:25.483Z,31.21
2023-03-29T13:36:04.317Z,29.65
2023-03-29T13:38:33.264Z,31.05
2023-03-29T13:41:03.372Z,30.44
2023-03-29T13:43:34.435Z,28.78
2023-03-29T13:46:22.359Z,30.91
2023-03-29T13:49:04.825Z,31.17
2023-03-29T13:51:40.988Z,30.30
2023-03-29T13:54:19.859Z,29.80
2023-03-29T13:56:58.815Z,30.46
2023-03-29T13:59:33.203Z,31.38
2023-03-29T14:02:03.706Z,30.93
2023-03-29T14:04:37.771Z,31.19
2023-03-29T14:07:10.646Z,31.95
2023-03-29T14:09:43.824Z,29.22
2023-03-29T14:12:15.728Z,30.06
2023-03-29T14:14:58.230Z,31.72
2023-03-29T14:17:26.657Z,30.51
2023-03-29T14:19:57.855Z,30.06
2023-03-29T14:22:31.448Z,29.22
2023-03-29T14:25:03.084Z,29.00
2023-03-29T14:27:32.015Z,29.42
2023-03-29T14:29:59.870Z,29.45
2023-03-29T14:32:30.606Z,29.68
2023-03-29T14:34:58.993Z,29.68
2023-03-29T14:37:29.680Z,29.20
2023-03-29T14:39:59.549Z,29.26
2023-03-29T14:42:29.940Z,28.83
2023-03-29T14:45:05.859Z,29.65
2023-03-29T14:47:34.520Z,28.95
2023-03-29T14:50:03.897Z,29.04
2023-03-29T14:52:33.540Z,30.58
2023-03-29T14:55:04.165Z,28.36
2023-03-29T14:57:36.494Z,28.49
2023-03-29T15:00:17.541Z,27.92
2023-03-29T15:02:51.556Z,28.59
2023-03-29T15:05:25.660Z,28.84
2023-03-29T15:07:56.333Z,27.62
2023-03-29T15:10:24.751Z,28.40
2023-03-29T15:12:52.851Z,28.27
2023-03-29T15:15:21.796Z,29.98
2023-03-29T15:17:52.296Z,29.34
2023-03-29T15:20:25.232Z,29.63
2023-03-29T15:23:01.885Z,30.52
2023-03-29T15:25:34.642Z,29.83
2023-03-29T15:28:02.429Z,30.17
2023-03-29T15:30:34.772Z,30.72
2023-03-29T15:33:16.977Z,28.04
2023-03-29T15:35:50.565Z,29.55
2023-03-29T15:38:23.374Z,29.89
2023-03-29T15:40:55.662Z,29.60
2023-03-29T15:43:23.644Z,29.19
2023-03-29T15:45:51.421Z,28.98
2023-03-29T15:48:21.493Z,29.38
2023-03-29T15:50:49.380Z,29.23
2023-03-29T15:53:18.492Z,29.10
2023-03-29T15:55:51.363Z,29.77
2023-03-29T15:58:23.465Z,29.33
2023-03-29T16:00:54.911Z,29.39
2023-03-29T16:03:24.542Z,29.00
2023-03-29T16:05:54.246Z,29.17
2023-03-29T16:08:21.961Z,29.05
2023-03-29T16:10:51.132Z,27.38
2023-03-29T16:13:18.961Z,29.50
2023-03-29T16:15:47.135Z,27.97
2023-03-29T16:18:15.110Z,29.15
2023-03-29T16:20:42.879Z,29.96
2023-03-29T16:23:12.041Z,29.09
2023-03-29T16:25:41.036Z,27.37
2023-03-29T16:28:10.694Z,28.64
2023-03-29T16:30:39.433Z,29.05
2023-03-29T16:33:08.575Z,29.26
2023-03-29T16:35:39.822Z,27.68
2023-03-29T16:38:08.670Z,28.27
2023-03-29T16:40:37.580Z,28.47
2023-03-29T16:43:05.367Z,29.22
2023-03-29T16:45:34.463Z,28.74
2023-03-29T16:48:02.597Z,28.92
2023-03-29T16:50:30.691Z,27.46
2023-03-29T16:52:58.473Z,27.20
2023-03-29T16:55:26.184Z,27.78
2023-03-29T16:57:53.868Z,28.47
2023-03-29T17:00:23.012Z,25.39
2023-03-29T17:02:52.783Z,26.64
2023-03-29T17:05:20.770Z,27.43
2023-03-29T17:07:48.538Z,26.53
2023-03-29T17:10:16.612Z,26.49
2023-03-29T17:12:44.331Z,28.02
2023-03-29T17:15:12.220Z,27.99
2023-03-29T17:17:40.082Z,28.04
2023-03-29T17:20:12.432Z,27.67
2023-03-29T17:22:40.458Z,27.50
2023-03-29T17:25:09.750Z,26.95
2023-03-29T17:27:38.472Z,28.29
2023-03-29T17:30:07.207Z,27.80
2023-03-29T17:32:35.583Z,27.46
2023-03-29T17:35:03.820Z,26.74
2023-03-29T17:37:32.873Z,26.87
2023-03-29T17:40:00.775Z,27.80
2023-03-29T17:42:28.548Z,27.27
2023-03-29T17:44:56.316Z,27.13
2023-03-29T17:47:24.185Z,26.57
2023-03-29T17:49:51.992Z,26.68
2023-03-29T17:52:19.718Z,25.48
2023-03-29T17:54:48.827Z,26.36
2023-03-29T17:57:16.768Z,25.56
2023-03-29T17:59:44.510Z,26.25
2023-03-29T18:02:18.063Z,26.75
2023-03-29T18:04:46.228Z,26.53
2023-03-29T18:07:14.700Z,24.65
2023-03-29T18:09:42.520Z,26.61
2023-03-29T18:12:11.689Z,26.26
2023-03-29T18:14:39.423Z,26.35
2023-03-29T18:17:07.328Z,25.84
2023-03-29T18:19:35.155Z,24.30
2023-03-29T18:22:02.926Z,25.23
2023-03-29T18:24:30.983Z,24.83
2023-03-29T18:26:58.722Z,25.42
2023-03-29T18:29:27.960Z,26.01
2023-03-29T18:31:55.837Z,25.98
2023-03-29T18:34:23.624Z,25.48
2023-03-29T18:36:53.579Z,25.25
2023-03-29T18:39:21.341Z,25.26
2023-03-29T18:41:49.348Z,26.02
2023-03-29T18:44:17.116Z,25.93
2023-03-29T18:46:46.196Z,26.00
2023-03-29T18:49:14.098Z,25.33
2023-03-29T18:51:42.193Z,25.01
2023-03-29T18:54:09.983Z,24.38
2023-03-29T18:56:37.699Z,25.07
2023-03-29T18:59:06.444Z,24.90
2023-03-29T19:01:34.812Z,25.22
2023-03-29T19:04:04.031Z,25.72
2023-03-29T19:06:32.012Z,26.21
2023-03-29T19:09:01.951Z,25.95
2023-03-29T19:11:30.568Z,25.73
2023-03-29T19:13:58.543Z,26.25
2023-03-29T19:16:27.578Z,25.82
2023-03-29T19:18:55.781Z,26.21
2023-03-29T19:21:24.884Z,25.29
2023-03-29T19:23:53.348Z,25.80
2023-03-29T19:26:21.625Z,25.73
2023-03-29T19:28:49.369Z,25.54
2023-03-29T19:31:17.465Z,25.75
2023-03-29T19:33:45.460Z,25.32
2023-03-29T19:36:13.524Z,24.99
2023-03-29T19:38:42.932Z,25.59
2023-03-29T19:41:12.081Z,24.33
2023-03-29T19:43:39.825Z,25.59
2023-03-29T19:46:10.355Z,25.58
2023-03-29T19:48:38.446Z,24.89
2023-03-29T19:51:06.709Z,25.08
2023-03-29T19:53:38.172Z,25.18
2023-03-29T19:56:10.762Z,26.18
2023-03-29T19:58:38.605Z,26.17
2023-03-29T20:01:06.440Z,26.34
2023-03-29T20:03:34.526Z,23.55
2023-03-29T20:06:02.642Z,24.61
2023-03-29T20:08:30.487Z,24.81
2023-03-29T20:10:59.574Z,25.53
2023-03-29T20:13:38.041Z,26.89
2023-03-29T20:16:07.393Z,25.58
2023-03-29T20:18:35.258Z,25.96
2023-03-29T20:21:03.710Z,25.57
2023-03-29T20:23:31.682Z,26.38
2023-03-29T20:25:59.410Z,26.99
2023-03-29T20:28:29.269Z,26.47
2023-03-29T20:30:57.028Z,25.94
2023-03-29T20:33:24.816Z,24.94
2023-03-29T20:35:52.677Z,24.69
2023-03-29T20:38:21.480Z,24.91
2023-03-29T20:40:49.975Z,25.44
2023-03-29T20:43:20.075Z,25.34
2023-03-29T20:45:52.554Z,25.68
2023-03-29T20:48:23.066Z,25.28
2023-03-29T20:50:51.906Z,24.90
2023-03-29T20:53:20.806Z,25.25
2023-03-29T20:55:48.794Z,25.10
2023-03-29T20:58:16.654Z,24.92
2023-03-29T21:00:45.344Z,24.58
2023-03-29T21:03:14.578Z,24.29
2023-03-29T21:05:43.360Z,24.94
2023-03-29T21:08:11.169Z,24.11
2023-03-29T21:10:38.964Z,23.70
2023-03-29T21:13:07.580Z,23.68
2023-03-29T21:15:35.489Z,24.08
2023-03-29T21:18:04.188Z,23.36
2023-03-29T21:20:33.384Z,24.38
2023-03-29T21:23:01.360Z,24.06
2023-03-29T21:25:29.127Z,24.30
2023-03-29T21:27:56.913Z,24.87
2023-03-29T21:30:24.619Z,24.75
2023-03-29T21:32:52.349Z,24.67
2023-03-29T21:35:20.580Z,24.18
2023-03-29T21:37:49.683Z,23.69
2023-03-29T21:40:17.479Z,23.93
2023-03-29T21:42:45.278Z,24.19
2023-03-29T21:45:13.008Z,24.95
2023-03-29T21:47:40.840Z,25.20
2023-03-29T21:50:09.342Z,24.92
2023-03-29T21:52:37.719Z,25.73
2023-03-29T21:55:07.604Z,24.75
2023-03-29T21:57:35.600Z,24.35
2023-03-29T22:00:05.111Z,25.09
2023-03-29T22:02:33.019Z,24.98
2023-03-29T22:05:00.926Z,24.51
2023-03-29T22:07:28.711Z,24.86
2023-03-29T22:09:58.540Z,23.93
2023-03-29T22:12:27.809Z,23.89
2023-03-29T22:14:55.500Z,24.33
2023-03-29T22:17:26.655Z,24.68
2023-03-29T22:19:56.660Z,24.74
2023-03-29T22:22:25.121Z,24.36
2023-03-29T22:24:53.876Z,23.63
2023-03-29T22:27:22.029Z,24.63
2023-03-29T22:29:51.144Z,24.74
2023-03-29T22:32:18.890Z,24.19
2023-03-29T22:34:46.657Z,23.81
2023-03-29T22:37:14.404Z,24.02
2023-03-29T22:39:42.108Z,24.03
2023-03-29T22:42:09.829Z,23.09
2023-03-29T22:44:37.547Z,24.28
2023-03-29T22:47:06.819Z,23.31
2023-03-29T22:49:34.534Z,23.42
2023-03-29T22:52:02.390Z,24.20
2023-03-29T22:54:30.370Z,24.53
2023-03-29T22:56:58.250Z,24.32
2023-03-29T22:59:26.910Z,24.37
2023-03-29T23:01:54.850Z,23.39
2023-03-29T23:04:23.965Z,23.77
2023-03-29T23:06:51.775Z,23.43
2023-03-29T23:09:19.524Z,23.62
2023-03-29T23:11:47.307Z,23.39
2023-03-29T23:14:15.015Z,22.32
2023-03-29T23:16:42.702Z,22.87
2023-03-29T23:19:10.483Z,23.84
2023-03-29T23:21:39.685Z,24.00
2023-03-29T23:24:08.484Z,23.89
2023-03-29T23:26:37.563Z,23.93
2023-03-29T23:29:05.326Z,22.47
2023-03-29T23:31:33.705Z,23.69
2023-03-29T23:34:03.124Z,23.32
2023-03-29T23:36:31.478Z,23.18
2023-03-29T23:39:00.566Z,23.04
2023-03-29T23:41:30.672Z,23.59
2023-03-29T23:43:58.658Z,23.56
2023-03-29T23:46:26.451Z,23.33
2023-03-29T23:48:54.152Z,22.31
2023-03-29T23:51:23.504Z,22.40
2023-03-29T23:53:51.755Z,22.59
2023-03-29T23:56:21.548Z,21.86
2023-03-29T23:58:49.531Z,22.00
